createdAt,value
2022-08-27T00:00:32.536Z,2.50
2022-08-27T00:01:32.547Z,2.50
2022-08-27T00:02:32.516Z,2.30
2022-08-27T00:03:32.503Z,2.10
2022-08-27T00:04:32.561Z,2.00
2022-08-27T00:05:32.468Z,1.70
2022-08-27T00:06:32.460Z,2.00
2022-08-27T00:07:32.481Z,2.20
2022-08-27T00:08:32.445Z,1.90
2022-08-27T00:09:32.428Z,2.00
2022-08-27T00:10:32.415Z,2.00
2022-08-27T00:11:32.403Z,2.30
2022-08-27T00:12:32.405Z,1.60
2022-08-27T00:13:32.385Z,2.10
2022-08-27T00:14:32.369Z,1.90
2022-08-27T00:15:32.373Z,2.30
2022-08-27T00:16:32.408Z,2.50
2022-08-27T00:17:32.377Z,2.20
2022-08-27T00:18:32.339Z,1.90
2022-08-27T00:19:32.330Z,2.10
2022-08-27T00:20:32.319Z,1.70
2022-08-27T00:21:32.313Z,1.60
2022-08-27T00:22:32.347Z,2.10
2022-08-27T00:23:32.291Z,2.30
2022-08-27T00:24:32.277Z,1.90
2022-08-27T00:25:32.286Z,2.10
2022-08-27T00:26:32.272Z,2.20
2022-08-27T00:27:32.269Z,1.80
2022-08-27T00:28:32.243Z,1.80
2022-08-27T00:29:32.241Z,2.10
2022-08-27T00:30:32.214Z,1.80
2022-08-27T00:31:32.267Z,2.10
2022-08-27T00:32:32.219Z,1.70
2022-08-27T00:33:32.202Z,2.00
2022-08-27T00:34:32.178Z,2.00
2022-08-27T00:35:32.162Z,1.90
2022-08-27T00:36:32.159Z,2.20
2022-08-27T00:37:32.163Z,2.30
2022-08-27T00:38:32.154Z,2.20
2022-08-27T00:39:32.124Z,1.70
2022-08-27T00:40:32.203Z,1.80
2022-08-27T00:41:32.112Z,2.10
2022-08-27T00:42:32.133Z,1.80
2022-08-27T00:43:32.104Z,1.80
2022-08-27T00:44:32.097Z,1.70
2022-08-27T00:45:32.147Z,1.90
2022-08-27T00:46:32.059Z,2.20
2022-08-27T00:47:32.060Z,2.00
2022-08-27T00:48:32.037Z,2.00
2022-08-27T00:49:32.021Z,2.00
2022-08-27T00:50:32.021Z,1.80
2022-08-27T00:51:32.014Z,2.00
2022-08-27T00:52:32.018Z,2.10
2022-08-27T00:53:31.981Z,2.00
2022-08-27T00:54:31.988Z,2.00
2022-08-27T00:55:31.965Z,1.70
2022-08-27T00:56:31.954Z,2.00
2022-08-27T00:57:31.963Z,1.90
2022-08-27T00:58:31.941Z,2.20
2022-08-27T00:59:31.931Z,1.80
2022-08-27T01:00:31.926Z,2.50
2022-08-27T01:01:31.909Z,2.60
2022-08-27T01:02:31.995Z,2.30
2022-08-27T01:03:31.885Z,2.10
2022-08-27T01:04:31.877Z,1.90
2022-08-27T01:05:31.863Z,2.40
2022-08-27T01:06:31.856Z,2.00
2022-08-27T01:07:31.858Z,2.00
2022-08-27T01:08:31.839Z,2.00
2022-08-27T01:09:31.825Z,1.90
2022-08-27T01:10:31.819Z,1.60
2022-08-27T01:11:31.815Z,1.80
2022-08-27T01:12:31.821Z,2.60
2022-08-27T01:13:44.145Z,2.00
2022-08-27T01:14:31.783Z,2.30
2022-08-27T01:15:31.760Z,2.20
2022-08-27T01:16:31.833Z,2.00
2022-08-27T01:17:31.746Z,1.80
2022-08-27T01:18:31.736Z,2.00
2022-08-27T01:19:31.720Z,1.60
2022-08-27T01:20:31.725Z,2.60
2022-08-27T01:21:31.735Z,2.00
2022-08-27T01:22:31.701Z,2.20
2022-08-27T01:23:31.698Z,1.90
2022-08-27T01:24:31.676Z,2.40
2022-08-27T01:25:31.662Z,2.00
2022-08-27T01:26:31.675Z,1.70
2022-08-27T01:27:31.647Z,2.30
2022-08-27T01:28:35.740Z,1.60
2022-08-27T01:29:31.628Z,1.90
2022-08-27T01:30:31.617Z,1.70
2022-08-27T01:31:31.705Z,1.60
2022-08-27T01:32:31.632Z,2.00
2022-08-27T01:33:31.579Z,2.20
2022-08-27T01:34:31.574Z,2.00
2022-08-27T01:35:31.563Z,2.40
2022-08-27T01:36:31.598Z,1.90
2022-08-27T01:37:31.547Z,1.80
2022-08-27T01:38:31.617Z,2.00
2022-08-27T01:39:31.528Z,2.00
2022-08-27T01:40:31.651Z,2.30
2022-08-27T01:41:31.528Z,1.90
2022-08-27T01:42:31.526Z,2.40
2022-08-27T01:43:31.534Z,2.30
2022-08-27T01:44:31.480Z,2.40
2022-08-27T01:45:31.478Z,2.00
2022-08-27T01:46:31.540Z,2.30
2022-08-27T01:47:31.517Z,2.20
2022-08-27T01:48:31.452Z,1.90
2022-08-27T01:49:31.437Z,2.20
2022-08-27T01:50:31.439Z,2.20
2022-08-27T01:51:31.401Z,2.20
2022-08-27T01:52:31.403Z,1.70
2022-08-27T01:53:31.396Z,2.10
2022-08-27T01:54:31.383Z,2.20
2022-08-27T01:55:31.369Z,2.00
2022-08-27T01:56:31.370Z,2.50
2022-08-27T01:57:31.344Z,2.10
2022-08-27T01:58:31.346Z,2.50
2022-08-27T01:59:39.166Z,1.80
2022-08-27T02:00:31.362Z,2.50
2022-08-27T02:01:31.421Z,2.40
2022-08-27T02:02:31.310Z,2.50
2022-08-27T02:03:31.292Z,2.40
2022-08-27T02:04:31.277Z,2.30
2022-08-27T02:05:31.259Z,2.40
2022-08-27T02:06:31.269Z,2.60
2022-08-27T02:07:31.245Z,2.20
2022-08-27T02:08:31.259Z,2.00
2022-08-27T02:09:31.243Z,1.90
2022-08-27T02:10:31.222Z,1.90
2022-08-27T02:11:31.225Z,2.20
2022-08-27T02:12:31.203Z,2.30
2022-08-27T02:13:31.182Z,2.20
2022-08-27T02:14:31.178Z,2.10
2022-08-27T02:15:31.169Z,2.20
2022-08-27T02:16:31.261Z,2.30
2022-08-27T02:17:31.150Z,2.80
2022-08-27T02:18:31.141Z,2.40
2022-08-27T02:19:31.132Z,2.30
2022-08-27T02:20:31.123Z,2.20
2022-08-27T02:21:31.119Z,1.90
2022-08-27T02:22:31.107Z,2.20
2022-08-27T02:23:31.085Z,1.70
2022-08-27T02:24:31.075Z,2.30
2022-08-27T02:25:31.066Z,2.30
2022-08-27T02:26:31.073Z,2.10
2022-08-27T02:27:31.060Z,2.10
2022-08-27T02:28:31.049Z,2.70
2022-08-27T02:29:31.025Z,2.20
2022-08-27T02:30:31.046Z,2.20
2022-08-27T02:31:31.051Z,2.00
2022-08-27T02:32:32.130Z,2.30
2022-08-27T02:33:30.981Z,2.20
2022-08-27T02:34:30.986Z,1.90
2022-08-27T02:35:30.969Z,2.00
2022-08-27T02:36:30.968Z,1.90
2022-08-27T02:37:30.941Z,2.20
2022-08-27T02:38:38.498Z,1.70
2022-08-27T02:39:30.924Z,2.00
2022-08-27T02:40:30.980Z,2.00
2022-08-27T02:41:33.327Z,2.30
2022-08-27T02:42:30.894Z,2.20
2022-08-27T02:43:30.881Z,1.80
2022-08-27T02:44:30.873Z,2.40
2022-08-27T02:45:30.891Z,2.60
2022-08-27T02:46:30.879Z,2.50
2022-08-27T02:47:30.846Z,2.20
2022-08-27T02:48:30.844Z,2.00
2022-08-27T02:49:30.830Z,2.20
2022-08-27T02:50:30.855Z,2.20
2022-08-27T02:51:30.835Z,2.40
2022-08-27T02:52:30.810Z,2.00
2022-08-27T02:53:30.795Z,2.20
2022-08-27T02:54:30.785Z,2.00
2022-08-27T02:55:30.789Z,2.30
2022-08-27T02:56:30.764Z,1.90
2022-08-27T02:57:30.751Z,1.80
2022-08-27T02:58:30.743Z,2.20
2022-08-27T02:59:30.727Z,1.70
2022-08-27T03:00:30.763Z,2.00
2022-08-27T03:01:30.767Z,2.20
2022-08-27T03:02:30.806Z,2.20
2022-08-27T03:03:30.681Z,2.30
2022-08-27T03:04:30.695Z,1.90
2022-08-27T03:05:30.674Z,2.10
2022-08-27T03:06:30.665Z,1.80
2022-08-27T03:07:30.647Z,2.30
2022-08-27T03:08:30.668Z,1.50
2022-08-27T03:09:30.635Z,1.80
2022-08-27T03:10:30.639Z,2.20
2022-08-27T03:11:30.614Z,1.70
2022-08-27T03:12:30.607Z,2.10
2022-08-27T03:13:30.582Z,1.60
2022-08-27T03:14:30.590Z,2.20
2022-08-27T03:15:30.605Z,1.80
2022-08-27T03:16:30.601Z,1.90
2022-08-27T03:17:30.567Z,2.20
2022-08-27T03:18:30.544Z,2.20
2022-08-27T03:19:30.536Z,2.00
2022-08-27T03:20:30.551Z,2.60
2022-08-27T03:21:30.510Z,2.60
2022-08-27T03:22:30.514Z,2.80
2022-08-27T03:23:30.500Z,2.30
2022-08-27T03:24:30.525Z,2.90
2022-08-27T03:25:30.466Z,3.50
2022-08-27T03:26:30.520Z,3.30
2022-08-27T03:27:30.451Z,3.50
2022-08-27T03:28:30.437Z,2.10
2022-08-27T03:29:30.431Z,2.10
2022-08-27T03:30:30.424Z,2.70
2022-08-27T03:31:30.474Z,1.90
2022-08-27T03:32:30.397Z,2.20
2022-08-27T03:33:30.388Z,2.20
2022-08-27T03:34:30.378Z,2.40
2022-08-27T03:35:30.382Z,2.10
2022-08-27T03:36:30.375Z,2.10
2022-08-27T03:37:30.346Z,2.20
2022-08-27T03:38:30.339Z,2.30
2022-08-27T03:39:30.328Z,2.60
2022-08-27T03:40:30.389Z,1.90
2022-08-27T03:41:43.859Z,2.70
2022-08-27T03:42:30.301Z,2.00
2022-08-27T03:43:30.298Z,2.30
2022-08-27T03:44:30.284Z,2.50
2022-08-27T03:45:30.268Z,3.00
2022-08-27T03:46:30.332Z,2.40
2022-08-27T03:47:30.242Z,2.80
2022-08-27T03:48:30.243Z,2.10
2022-08-27T03:49:30.247Z,2.20
2022-08-27T03:50:30.260Z,2.10
2022-08-27T03:51:30.226Z,3.00
2022-08-27T03:52:30.220Z,3.20
2022-08-27T03:53:30.189Z,2.40
2022-08-27T03:54:30.193Z,2.30
2022-08-27T03:55:30.163Z,3.30
2022-08-27T03:56:30.171Z,2.90
2022-08-27T03:57:30.146Z,2.40
2022-08-27T03:58:30.141Z,2.50
2022-08-27T03:59:30.124Z,2.70
2022-08-27T04:00:30.120Z,2.40
2022-08-27T04:01:30.174Z,3.10
2022-08-27T04:02:30.128Z,2.70
2022-08-27T04:03:30.086Z,2.70
2022-08-27T04:04:30.082Z,3.00
2022-08-27T04:05:30.080Z,3.20
2022-08-27T04:06:30.082Z,3.30
2022-08-27T04:07:30.044Z,4.50
2022-08-27T04:08:30.041Z,3.40
2022-08-27T04:09:30.025Z,4.10
2022-08-27T04:10:34.881Z,3.30
2022-08-27T04:11:30.028Z,3.80
2022-08-27T04:12:29.998Z,3.80
2022-08-27T04:13:29.990Z,3.50
2022-08-27T04:14:30.010Z,3.00
2022-08-27T04:15:29.961Z,2.90
2022-08-27T04:16:30.039Z,3.20
2022-08-27T04:17:29.963Z,2.80
2022-08-27T04:18:29.950Z,2.50
2022-08-27T04:19:29.926Z,2.20
2022-08-27T04:20:35.361Z,1.90
2022-08-27T04:21:29.923Z,2.50
2022-08-27T04:22:29.899Z,2.20
2022-08-27T04:23:29.903Z,2.60
2022-08-27T04:24:29.882Z,2.00
2022-08-27T04:25:29.881Z,1.80
2022-08-27T04:26:29.889Z,2.10
2022-08-27T04:27:29.864Z,2.20
2022-08-27T04:28:29.851Z,2.30
2022-08-27T04:29:29.825Z,1.90
2022-08-27T04:30:29.815Z,2.30
2022-08-27T04:31:29.911Z,2.60
2022-08-27T04:32:29.825Z,2.20
2022-08-27T04:33:29.838Z,2.60
2022-08-27T04:34:29.780Z,2.00
2022-08-27T04:35:29.763Z,2.60
2022-08-27T04:36:29.777Z,2.50
2022-08-27T04:37:29.757Z,2.30
2022-08-27T04:38:29.742Z,2.40
2022-08-27T04:39:29.724Z,2.30
2022-08-27T04:40:29.791Z,2.20
2022-08-27T04:41:29.723Z,2.10
2022-08-27T04:42:29.697Z,1.90
2022-08-27T04:43:29.686Z,2.00
2022-08-27T04:44:29.675Z,2.20
2022-08-27T04:45:29.673Z,2.20
2022-08-27T04:46:29.708Z,2.20
2022-08-27T04:47:29.660Z,2.20
2022-08-27T04:48:29.642Z,2.40
2022-08-27T04:49:29.699Z,2.10
2022-08-27T04:50:29.612Z,1.60
2022-08-27T04:51:29.635Z,2.50
2022-08-27T04:52:29.592Z,1.60
2022-08-27T04:53:29.590Z,2.20
2022-08-27T04:54:32.862Z,2.10
2022-08-27T04:55:29.569Z,2.00
2022-08-27T04:56:29.585Z,1.90
2022-08-27T04:57:29.604Z,1.60
2022-08-27T04:58:29.613Z,2.00
2022-08-27T04:59:29.525Z,1.90
2022-08-27T05:00:29.515Z,2.20
2022-08-27T05:01:29.590Z,2.20
2022-08-27T05:02:29.499Z,2.10
2022-08-27T05:03:29.489Z,1.90
2022-08-27T05:04:29.501Z,2.10
2022-08-27T05:05:29.550Z,2.50
2022-08-27T05:06:29.495Z,2.10
2022-08-27T05:07:29.519Z,1.80
2022-08-27T05:08:29.433Z,1.90
2022-08-27T05:09:29.460Z,2.30
2022-08-27T05:10:29.415Z,1.90
2022-08-27T05:11:29.432Z,1.90
2022-08-27T05:12:29.446Z,2.40
2022-08-27T05:13:29.397Z,2.90
2022-08-27T05:14:29.511Z,1.90
2022-08-27T05:15:29.395Z,2.20
2022-08-27T05:16:29.378Z,2.00
2022-08-27T05:17:29.355Z,1.90
2022-08-27T05:18:29.332Z,2.10
2022-08-27T05:19:29.338Z,2.50
2022-08-27T05:20:29.322Z,1.90
2022-08-27T05:21:29.325Z,2.40
2022-08-27T05:22:29.388Z,1.70
2022-08-27T05:23:29.296Z,2.30
2022-08-27T05:24:29.275Z,2.10
2022-08-27T05:25:29.273Z,2.30
2022-08-27T05:26:29.274Z,2.40
2022-08-27T05:27:29.246Z,2.50
2022-08-27T05:28:29.236Z,2.30
2022-08-27T05:29:29.232Z,2.00
2022-08-27T05:30:29.212Z,2.10
2022-08-27T05:31:29.382Z,2.20
2022-08-27T05:32:29.192Z,1.90
2022-08-27T05:33:29.185Z,2.20
2022-08-27T05:34:29.171Z,1.90
2022-08-27T05:35:29.173Z,2.00
2022-08-27T05:36:29.174Z,1.40
2022-08-27T05:37:29.148Z,2.10
2022-08-27T05:38:29.134Z,2.90
2022-08-27T05:39:29.128Z,1.70
2022-08-27T05:40:29.187Z,2.00
2022-08-27T05:41:34.093Z,1.90
2022-08-27T05:42:29.104Z,1.80
2022-08-27T05:43:29.086Z,1.60
2022-08-27T05:44:44.508Z,1.50
2022-08-27T05:45:29.079Z,2.10
2022-08-27T05:46:29.173Z,2.20
2022-08-27T05:47:29.050Z,1.80
2022-08-27T05:48:29.035Z,2.40
2022-08-27T05:49:29.028Z,2.10
2022-08-27T05:50:29.008Z,2.00
2022-08-27T05:51:29.064Z,2.00
2022-08-27T05:52:28.993Z,1.70
2022-08-27T05:53:28.988Z,2.30
2022-08-27T05:54:28.976Z,1.80
2022-08-27T05:55:28.984Z,1.60
2022-08-27T05:56:28.969Z,2.10
2022-08-27T05:57:28.946Z,1.80
2022-08-27T05:58:28.941Z,1.90
2022-08-27T05:59:28.929Z,1.60
2022-08-27T06:00:28.972Z,1.80
2022-08-27T06:01:28.928Z,1.60
2022-08-27T06:02:28.946Z,1.90
2022-08-27T06:03:28.886Z,1.50
2022-08-27T06:04:28.874Z,2.50
2022-08-27T06:05:28.942Z,2.00
2022-08-27T06:06:28.873Z,1.30
2022-08-27T06:07:28.851Z,1.70
2022-08-27T06:08:28.836Z,1.70
2022-08-27T06:09:28.839Z,2.00
2022-08-27T06:10:28.811Z,1.80
2022-08-27T06:11:28.843Z,1.50
2022-08-27T06:12:28.793Z,1.70
2022-08-27T06:13:28.792Z,2.20
2022-08-27T06:14:28.808Z,2.00
2022-08-27T06:15:28.810Z,2.00
2022-08-27T06:16:28.770Z,1.80
2022-08-27T06:17:28.755Z,1.70
2022-08-27T06:18:28.786Z,2.00
2022-08-27T06:19:28.746Z,2.00
2022-08-27T06:20:28.715Z,1.70
2022-08-27T06:21:28.727Z,1.90
2022-08-27T06:22:28.692Z,1.70
2022-08-27T06:23:28.686Z,1.90
2022-08-27T06:24:28.674Z,2.10
2022-08-27T06:25:28.669Z,2.50
2022-08-27T06:26:28.673Z,2.30
2022-08-27T06:27:28.643Z,1.90
2022-08-27T06:28:28.633Z,1.60
2022-08-27T06:29:28.631Z,2.70
2022-08-27T06:30:28.613Z,1.50
2022-08-27T06:31:28.677Z,1.80
2022-08-27T06:32:28.593Z,1.70
2022-08-27T06:33:28.588Z,2.30
2022-08-27T06:34:28.583Z,3.10
2022-08-27T06:35:33.432Z,2.70
2022-08-27T06:36:28.580Z,2.80
2022-08-27T06:37:28.548Z,2.50
2022-08-27T06:38:28.532Z,3.10
2022-08-27T06:39:28.524Z,2.80
2022-08-27T06:40:28.666Z,2.30
2022-08-27T06:41:28.547Z,2.60
2022-08-27T06:42:28.493Z,1.70
2022-08-27T06:43:28.486Z,3.00
2022-08-27T06:44:28.483Z,2.40
2022-08-27T06:45:28.466Z,2.50
2022-08-27T06:46:28.569Z,2.60
2022-08-27T06:47:28.448Z,3.00
2022-08-27T06:48:28.436Z,2.00
2022-08-27T06:49:28.426Z,2.90
2022-08-27T06:50:28.457Z,2.50
2022-08-27T06:51:28.427Z,2.30
2022-08-27T06:52:28.392Z,2.50
2022-08-27T06:53:28.385Z,2.60
2022-08-27T06:54:28.373Z,2.30
2022-08-27T06:55:28.369Z,2.40
2022-08-27T06:56:28.378Z,3.00
2022-08-27T06:57:28.349Z,3.50
2022-08-27T06:58:28.342Z,2.70
2022-08-27T06:59:28.328Z,2.30
2022-08-27T07:00:28.502Z,2.10
2022-08-27T07:01:30.382Z,2.30
2022-08-27T07:02:28.479Z,2.20
2022-08-27T07:03:28.303Z,2.30
2022-08-27T07:04:32.826Z,2.20
2022-08-27T07:05:28.303Z,2.10
2022-08-27T07:06:29.222Z,2.00
2022-08-27T07:07:35.364Z,2.40
2022-08-27T07:08:28.239Z,2.60
2022-08-27T07:09:28.225Z,2.50
2022-08-27T07:10:28.215Z,2.10
2022-08-27T07:11:28.237Z,2.80
2022-08-27T07:12:30.756Z,2.40
2022-08-27T07:13:28.186Z,2.40
2022-08-27T07:14:28.181Z,2.80
2022-08-27T07:15:28.229Z,2.40
2022-08-27T07:16:28.198Z,3.00
2022-08-27T07:17:28.149Z,2.20
2022-08-27T07:18:28.130Z,2.70
2022-08-27T07:19:28.128Z,2.80
2022-08-27T07:20:28.110Z,2.30
2022-08-27T07:21:28.123Z,3.20
2022-08-27T07:22:28.094Z,2.50
2022-08-27T07:23:28.087Z,2.80
2022-08-27T07:24:28.075Z,2.80
2022-08-27T07:25:28.078Z,2.40
2022-08-27T07:26:28.073Z,3.70
2022-08-27T07:27:28.046Z,2.90
2022-08-27T07:28:28.035Z,2.90
2022-08-27T07:29:32.091Z,2.30
2022-08-27T07:30:28.038Z,2.80
2022-08-27T07:31:28.025Z,2.30
2022-08-27T07:32:31.274Z,2.30
2022-08-27T07:33:27.987Z,3.00
2022-08-27T07:34:27.989Z,2.30
2022-08-27T07:35:28.567Z,2.30
2022-08-27T07:36:27.964Z,2.20
2022-08-27T07:37:32.420Z,2.50
2022-08-27T07:38:28.297Z,2.20
2022-08-27T07:39:28.020Z,1.90
2022-08-27T07:40:28.152Z,2.50
2022-08-27T07:41:30.807Z,2.80
2022-08-27T07:42:28.124Z,1.90
2022-08-27T07:43:28.299Z,2.10
2022-08-27T07:44:34.486Z,2.40
2022-08-27T07:45:28.100Z,2.00
2022-08-27T07:46:27.942Z,2.40
2022-08-27T07:47:28.170Z,1.90
2022-08-27T07:48:28.205Z,2.20
2022-08-27T07:49:27.981Z,1.90
2022-08-27T07:50:28.296Z,1.80
2022-08-27T07:51:27.970Z,1.60
2022-08-27T07:52:27.793Z,2.00
2022-08-27T07:53:27.791Z,2.00
2022-08-27T07:54:27.821Z,2.20
2022-08-27T07:55:27.767Z,1.90
2022-08-27T07:56:27.944Z,1.90
2022-08-27T07:57:27.979Z,2.40
2022-08-27T07:58:27.730Z,2.40
2022-08-27T07:59:27.736Z,2.10
2022-08-27T08:00:27.980Z,2.30
2022-08-27T08:01:28.195Z,1.90
2022-08-27T08:02:28.350Z,2.60
2022-08-27T08:03:27.688Z,2.00
2022-08-27T08:04:27.675Z,1.90
2022-08-27T08:05:27.671Z,2.50
2022-08-27T08:06:27.738Z,1.80
2022-08-27T08:07:27.650Z,1.70
2022-08-27T08:08:27.633Z,1.50
2022-08-27T08:09:27.628Z,2.10
2022-08-27T08:10:27.626Z,1.80
2022-08-27T08:11:27.622Z,1.60
2022-08-27T08:12:27.593Z,2.20
2022-08-27T08:13:27.587Z,1.90
2022-08-27T08:14:27.578Z,1.60
2022-08-27T08:15:27.566Z,1.80
2022-08-27T08:16:31.559Z,1.70
2022-08-27T08:17:29.210Z,1.40
2022-08-27T08:18:27.554Z,1.50
2022-08-27T08:19:28.256Z,1.60
2022-08-27T08:20:54.367Z,2.00
2022-08-27T08:21:27.533Z,1.40
2022-08-27T08:22:27.490Z,1.40
2022-08-27T08:23:27.496Z,1.30
2022-08-27T08:24:27.472Z,1.60
2022-08-27T08:25:27.476Z,1.60
2022-08-27T08:26:27.478Z,1.40
2022-08-27T08:27:27.444Z,2.10
2022-08-27T08:28:27.444Z,1.90
2022-08-27T08:29:27.519Z,1.90
2022-08-27T08:30:27.533Z,1.60
2022-08-27T08:31:27.649Z,1.30
2022-08-27T08:32:27.388Z,1.50
2022-08-27T08:33:27.458Z,1.30
2022-08-27T08:34:27.369Z,1.30
2022-08-27T08:35:27.367Z,1.40
2022-08-27T08:36:27.373Z,1.30
2022-08-27T08:37:27.392Z,0.90
2022-08-27T08:38:27.357Z,1.20
2022-08-27T08:39:27.326Z,1.40
2022-08-27T08:40:27.351Z,1.70
2022-08-27T08:41:27.349Z,1.50
2022-08-27T08:42:27.288Z,1.40
2022-08-27T08:43:33.359Z,1.80
2022-08-27T08:44:27.353Z,1.60
2022-08-27T08:45:27.537Z,1.30
2022-08-27T08:46:27.403Z,1.50
2022-08-27T08:47:27.247Z,1.30
2022-08-27T08:48:27.239Z,1.80
2022-08-27T08:49:27.237Z,2.00
2022-08-27T08:50:27.212Z,1.80
2022-08-27T08:51:27.206Z,1.40
2022-08-27T08:52:31.543Z,1.30
2022-08-27T08:53:27.187Z,1.60
2022-08-27T08:54:27.187Z,1.40
2022-08-27T08:55:27.162Z,1.40
2022-08-27T08:56:27.160Z,1.70
2022-08-27T08:57:27.150Z,1.70
2022-08-27T08:58:27.135Z,1.40
2022-08-27T08:59:27.120Z,1.60
2022-08-27T09:00:27.147Z,1.90
2022-08-27T09:01:27.157Z,1.40
2022-08-27T09:02:27.108Z,1.40
2022-08-27T09:03:27.104Z,1.40
2022-08-27T09:04:27.084Z,1.90
2022-08-27T09:05:27.798Z,1.30
2022-08-27T09:06:27.057Z,2.00
2022-08-27T09:07:27.056Z,1.80
2022-08-27T09:08:35.377Z,1.90
2022-08-27T09:09:27.028Z,1.60
2022-08-27T09:10:27.015Z,1.70
2022-08-27T09:11:27.001Z,1.50
2022-08-27T09:12:27.131Z,1.30
2022-08-27T09:13:26.990Z,1.90
2022-08-27T09:14:26.985Z,1.50
2022-08-27T09:15:26.961Z,1.80
2022-08-27T09:16:27.052Z,1.50
2022-08-27T09:17:26.951Z,1.30
2022-08-27T09:18:28.092Z,1.30
2022-08-27T09:19:26.918Z,1.80
2022-08-27T09:20:26.934Z,1.30
2022-08-27T09:21:28.068Z,1.30
2022-08-27T09:22:26.909Z,1.20
2022-08-27T09:23:26.883Z,1.40
2022-08-27T09:24:26.873Z,1.50
2022-08-27T09:25:26.882Z,1.20
2022-08-27T09:26:26.861Z,1.30
2022-08-27T09:27:26.858Z,1.40
2022-08-27T09:28:26.855Z,1.20
2022-08-27T09:29:26.839Z,1.00
2022-08-27T09:30:30.558Z,1.20
2022-08-27T09:31:26.864Z,1.30
2022-08-27T09:32:26.808Z,1.00
2022-08-27T09:33:26.790Z,1.40
2022-08-27T09:34:26.779Z,1.20
2022-08-27T09:35:26.762Z,1.30
2022-08-27T09:36:26.759Z,1.40
2022-08-27T09:37:33.886Z,2.20
2022-08-27T09:38:26.744Z,1.50
2022-08-27T09:39:26.735Z,1.50
2022-08-27T09:40:26.783Z,1.20
2022-08-27T09:41:26.706Z,1.20
2022-08-27T09:42:26.704Z,1.20
2022-08-27T09:43:26.686Z,1.70
2022-08-27T09:44:26.683Z,1.10
2022-08-27T09:45:26.665Z,1.10
2022-08-27T09:46:27.132Z,1.30
2022-08-27T09:47:26.725Z,1.40
2022-08-27T09:48:26.687Z,1.50
2022-08-27T09:49:26.651Z,1.90
2022-08-27T09:50:26.620Z,1.40
2022-08-27T09:51:26.629Z,1.40
2022-08-27T09:52:26.623Z,1.40
2022-08-27T09:53:26.590Z,1.50
2022-08-27T09:54:26.590Z,1.60
2022-08-27T09:55:26.563Z,1.40
2022-08-27T09:56:26.578Z,2.10
2022-08-27T09:57:30.727Z,1.80
2022-08-27T09:58:26.541Z,1.50
2022-08-27T09:59:26.532Z,1.20
2022-08-27T10:00:26.530Z,1.20
2022-08-27T10:01:26.612Z,1.70
2022-08-27T10:02:26.518Z,1.30
2022-08-27T10:03:29.991Z,1.30
2022-08-27T10:04:26.543Z,1.70
2022-08-27T10:05:26.468Z,1.70
2022-08-27T10:06:26.458Z,1.90
2022-08-27T10:07:26.458Z,2.10
2022-08-27T10:08:26.440Z,2.00
2022-08-27T10:09:26.441Z,1.90
2022-08-27T10:10:26.415Z,2.40
2022-08-27T10:11:26.409Z,1.70
2022-08-27T10:12:26.418Z,1.80
2022-08-27T10:13:26.393Z,1.80
2022-08-27T10:14:26.387Z,2.10
2022-08-27T10:15:26.361Z,1.70
2022-08-27T10:16:26.486Z,2.40
2022-08-27T10:17:26.362Z,1.70
2022-08-27T10:18:26.335Z,1.80
2022-08-27T10:19:26.339Z,2.30
2022-08-27T10:20:30.571Z,1.90
2022-08-27T10:21:26.333Z,2.40
2022-08-27T10:22:26.316Z,2.10
2022-08-27T10:23:26.290Z,1.70
2022-08-27T10:24:26.280Z,3.00
2022-08-27T10:25:26.269Z,2.10
2022-08-27T10:26:27.992Z,2.10
2022-08-27T10:27:26.259Z,1.90
2022-08-27T10:28:26.240Z,1.70
2022-08-27T10:29:26.228Z,2.40
2022-08-27T10:30:26.265Z,2.80
2022-08-27T10:31:26.346Z,2.60
2022-08-27T10:32:26.208Z,2.20
2022-08-27T10:33:26.184Z,2.30
2022-08-27T10:34:26.178Z,1.70
2022-08-27T10:35:26.162Z,2.10
2022-08-27T10:36:26.756Z,1.80
2022-08-27T10:37:26.165Z,1.70
2022-08-27T10:38:26.187Z,2.20
2022-08-27T10:39:26.128Z,1.60
2022-08-27T10:40:26.347Z,1.60
2022-08-27T10:41:26.129Z,1.70
2022-08-27T10:42:26.115Z,1.80
2022-08-27T10:43:26.085Z,1.80
2022-08-27T10:44:26.082Z,2.00
2022-08-27T10:45:31.439Z,1.40
2022-08-27T10:46:27.165Z,1.40
2022-08-27T10:47:26.063Z,1.60
2022-08-27T10:48:26.048Z,1.90
2022-08-27T10:49:26.025Z,1.80
2022-08-27T10:50:26.019Z,1.90
2022-08-27T10:51:26.006Z,1.80
2022-08-27T10:52:26.012Z,1.90
2022-08-27T10:53:25.982Z,1.30
2022-08-27T10:54:25.981Z,1.80
2022-08-27T10:55:25.963Z,1.90
2022-08-27T10:56:25.955Z,1.60
2022-08-27T10:57:45.401Z,1.80
2022-08-27T10:58:25.946Z,1.90
2022-08-27T10:59:25.927Z,1.50
2022-08-27T11:00:25.919Z,1.60
2022-08-27T11:01:25.991Z,1.70
2022-08-27T11:02:25.985Z,1.80
2022-08-27T11:03:25.882Z,1.60
2022-08-27T11:04:25.886Z,2.40
2022-08-27T11:05:25.861Z,1.80
2022-08-27T11:06:25.857Z,1.60
2022-08-27T11:07:25.854Z,1.50
2022-08-27T11:08:25.837Z,1.20
2022-08-27T11:09:25.821Z,1.60
2022-08-27T11:10:25.817Z,1.60
2022-08-27T11:12:10.430Z,1.90
2022-08-27T11:12:25.814Z,1.40
2022-08-27T11:13:25.782Z,1.50
2022-08-27T11:14:25.775Z,1.80
2022-08-27T11:15:25.761Z,2.00
2022-08-27T11:16:25.798Z,1.70
2022-08-27T11:17:25.759Z,2.20
2022-08-27T11:18:25.736Z,1.80
2022-08-27T11:19:25.723Z,2.10
2022-08-27T11:20:25.717Z,1.70
2022-08-27T11:21:25.702Z,1.80
2022-08-27T11:22:26.152Z,1.70
2022-08-27T11:23:25.682Z,1.90
2022-08-27T11:24:25.680Z,2.00
2022-08-27T11:25:25.659Z,2.10
2022-08-27T11:26:25.656Z,2.20
2022-08-27T11:27:25.660Z,2.00
2022-08-27T11:28:29.828Z,2.00
2022-08-27T11:29:25.620Z,1.90
2022-08-27T11:30:25.617Z,2.00
2022-08-27T11:31:25.670Z,2.70
2022-08-27T11:32:25.610Z,2.10
2022-08-27T11:33:25.586Z,2.10
2022-08-27T11:34:25.577Z,2.10
2022-08-27T11:35:25.564Z,2.80
2022-08-27T11:36:25.557Z,2.40
2022-08-27T11:37:25.559Z,2.40
2022-08-27T11:38:25.539Z,2.30
2022-08-27T11:39:25.532Z,2.50
2022-08-27T11:40:25.562Z,2.60
2022-08-27T11:41:25.503Z,1.70
2022-08-27T11:42:25.511Z,2.40
2022-08-27T11:43:25.481Z,2.50
2022-08-27T11:44:25.477Z,2.40
2022-08-27T11:45:25.460Z,2.20
2022-08-27T11:46:25.506Z,2.20
2022-08-27T11:47:25.455Z,2.00
2022-08-27T11:48:25.435Z,1.90
2022-08-27T11:49:25.420Z,2.10
2022-08-27T11:50:25.416Z,2.00
2022-08-27T11:51:25.404Z,1.90
2022-08-27T11:52:25.409Z,1.90
2022-08-27T11:53:28.349Z,1.70
2022-08-27T11:54:25.383Z,1.80
2022-08-27T11:55:25.363Z,2.20
2022-08-27T11:56:25.357Z,2.00
2022-08-27T11:57:25.356Z,2.10
2022-08-27T11:58:25.338Z,1.80
2022-08-27T11:59:25.323Z,2.10
2022-08-27T12:00:25.316Z,1.70
2022-08-27T12:01:25.305Z,2.10
2022-08-27T12:02:25.314Z,2.00
2022-08-27T12:03:25.308Z,2.10
2022-08-27T12:04:25.389Z,1.60
2022-08-27T12:05:26.883Z,2.30
2022-08-27T12:06:25.255Z,2.10
2022-08-27T12:07:25.250Z,2.00
2022-08-27T12:08:25.237Z,2.10
2022-08-27T12:09:25.226Z,2.00
2022-08-27T12:10:25.218Z,2.30
2022-08-27T12:11:25.202Z,2.10
2022-08-27T12:12:25.220Z,1.90
2022-08-27T12:13:25.186Z,1.90
2022-08-27T12:14:25.185Z,1.80
2022-08-27T12:15:31.145Z,1.50
2022-08-27T12:16:25.947Z,2.20
2022-08-27T12:17:25.185Z,2.40
2022-08-27T12:18:25.209Z,1.60
2022-08-27T12:19:25.177Z,1.80
2022-08-27T12:20:25.177Z,1.80
2022-08-27T12:21:25.160Z,1.60
2022-08-27T12:22:25.169Z,1.60
2022-08-27T12:23:25.126Z,1.40
2022-08-27T12:24:25.127Z,1.70
2022-08-27T12:25:25.115Z,1.60
2022-08-27T12:26:25.124Z,2.00
2022-08-27T12:27:25.115Z,1.90
2022-08-27T12:28:26.799Z,1.70
2022-08-27T12:29:27.936Z,1.80
2022-08-27T12:30:25.018Z,1.70
2022-08-27T12:31:25.098Z,1.80
2022-08-27T12:32:25.011Z,2.00
2022-08-27T12:33:24.982Z,2.00
2022-08-27T12:34:24.976Z,1.40
2022-08-27T12:35:24.963Z,1.80
2022-08-27T12:36:27.881Z,1.70
2022-08-27T12:37:24.958Z,1.90
2022-08-27T12:38:24.944Z,1.50
2022-08-27T12:39:24.924Z,1.60
2022-08-27T12:40:24.991Z,1.50
2022-08-27T12:41:24.902Z,1.80
2022-08-27T12:42:24.912Z,1.30
2022-08-27T12:43:24.887Z,1.50
2022-08-27T12:44:24.880Z,1.50
2022-08-27T12:45:24.865Z,1.80
2022-08-27T12:46:24.885Z,1.60
2022-08-27T12:47:24.865Z,1.80
2022-08-27T12:48:24.836Z,1.50
2022-08-27T12:49:37.774Z,1.30
2022-08-27T12:50:24.829Z,2.20
2022-08-27T12:51:24.808Z,2.50
2022-08-27T12:52:24.797Z,2.00
2022-08-27T12:53:24.797Z,2.20
2022-08-27T12:54:28.998Z,1.80
2022-08-27T12:55:24.767Z,2.50
2022-08-27T12:56:24.758Z,2.30
2022-08-27T12:57:24.741Z,2.00
2022-08-27T12:58:24.751Z,2.10
2022-08-27T12:59:24.734Z,2.00
2022-08-27T13:00:26.796Z,1.70
2022-08-27T13:01:24.990Z,2.20
2022-08-27T13:02:24.699Z,1.80
2022-08-27T13:03:24.696Z,1.90
2022-08-27T13:04:24.674Z,2.20
2022-08-27T13:05:24.665Z,2.20
2022-08-27T13:06:24.660Z,2.30
2022-08-27T13:07:24.655Z,2.20
2022-08-27T13:08:24.637Z,2.40
2022-08-27T13:09:24.623Z,3.10
2022-08-27T13:10:24.619Z,2.10
2022-08-27T13:11:24.610Z,2.60
2022-08-27T13:12:24.622Z,2.50
2022-08-27T13:13:24.589Z,2.30
2022-08-27T13:14:24.574Z,2.80
2022-08-27T13:15:24.567Z,2.50
2022-08-27T13:16:24.596Z,2.40
2022-08-27T13:17:24.548Z,1.70
2022-08-27T13:18:24.546Z,2.10